Time;durP1;ratioP1;P1;durP2;ratioP2;P2;SDS_P1;SDS_P2;PMS_P1;PMS_P2;Temp;Humidity;BMP_temperature;BMP_pressure;BME280_temperature;BME280_humidity;BME280_pressure;Samples;Min_cycle;Max_cycle;Signal;HPM_P1;HPM_P2
2021/07/01 00:00:35;;;;;;;7.72;4.90;;;;;;;16.23;98.14;100516.22;5029396;28;20026;-73
2021/07/01 00:03:01;;;;;;;9.40;5.25;;;;;;;16.18;97.93;100523.03;5013333;28;20037;-73
2021/07/01 00:05:27;;;;;;;9.18;5.25;;;;;;;16.14;98.95;100523.81;5013884;28;20024;-72
2021/07/01 00:07:52;;;;;;;9.15;5.43;;;;;;;16.03;98.58;100521.81;5014139;28;20108;-73
2021/07/01 00:10:21;;;;;;;6.85;5.20;;;;;;;16.04;99.23;100515.78;5012762;28;20022;-73
2021/07/01 00:12:46;;;;;;;7.63;4.82;;;;;;;16.14;98.05;100526.41;4995929;28;20037;-73
2021/07/01 00:15:15;;;;;;;8.43;4.90;;;;;;;16.25;97.68;100517.16;5028998;28;20052;-74
2021/07/01 00:17:44;;;;;;;7.05;4.68;;;;;;;16.24;96.56;100518.00;5013892;28;20428;-73
2021/07/01 00:20:11;;;;;;;8.48;4.78;;;;;;;16.35;97.21;100510.47;5013695;28;20369;-73
2021/07/01 00:22:38;;;;;;;6.25;4.28;;;;;;;16.36;96.61;100507.88;5012303;28;20494;-74
2021/07/01 00:25:05;;;;;;;10.50;5.65;;;;;;;16.41;96.67;100504.50;5011982;28;20030;-74
2021/07/01 00:27:30;;;;;;;8.95;5.43;;;;;;;16.54;95.10;100506.56;5012314;28;20407;-73
2021/07/01 00:29:56;;;;;;;9.68;5.28;;;;;;;16.39;95.74;100506.19;5013634;28;20026;-73
2021/07/01 00:32:22;;;;;;;13.10;5.90;;;;;;;16.34;97.71;100504.38;5011711;28;20034;-73
2021/07/01 00:34:48;;;;;;;9.40;5.72;;;;;;;16.32;94.35;100506.06;5012395;28;20076;-74
2021/07/01 00:37:14;;;;;;;10.32;5.75;;;;;;;16.32;96.82;100506.06;5011508;28;20029;-73
2021/07/01 00:39:39;;;;;;;8.63;5.85;;;;;;;16.34;96.50;100508.72;5012263;28;20034;-73
2021/07/01 00:42:05;;;;;;;12.32;6.03;;;;;;;16.08;97.47;100505.47;5012729;28;20405;-73
2021/07/01 00:44:31;;;;;;;11.00;6.40;;;;;;;16.10;100.00;100501.19;5013253;28;20104;-74
2021/07/01 00:46:57;;;;;;;11.05;5.97;;;;;;;16.20;99.05;100505.78;5012936;28;20117;-73
2021/07/01 00:49:23;;;;;;;11.77;6.30;;;;;;;16.22;99.37;100509.28;5012144;28;20386;-73
2021/07/01 00:51:49;;;;;;;9.73;6.35;;;;;;;16.29;97.98;100506.00;5012414;28;20033;-73
2021/07/01 00:54:15;;;;;;;12.45;7.30;;;;;;;16.40;99.09;100505.34;5028335;28;20029;-73
2021/07/01 00:56:41;;;;;;;13.95;7.22;;;;;;;16.42;97.92;100501.06;5028461;28;20030;-73
2021/07/01 00:59:07;;;;;;;12.77;7.22;;;;;;;16.44;97.28;100494.22;5012022;28;20100;-73
2021/07/01 01:01:34;;;;;;;11.27;6.65;;;;;;;16.49;98.60;100498.66;5028037;28;20037;-73
2021/07/01 01:03:59;;;;;;;10.50;7.15;;;;;;;16.42;97.94;100496.75;5012125;28;20228;-73
2021/07/01 01:06:25;;;;;;;13.60;8.20;;;;;;;16.39;98.45;100496.69;5011820;28;20053;-73
2021/07/01 01:08:50;;;;;;;14.70;7.85;;;;;;;16.42;97.88;100495.88;5013092;28;20034;-73
2021/07/01 01:11:15;;;;;;;14.13;7.95;;;;;;;16.42;96.87;100493.28;5012940;28;20395;-74
2021/07/01 01:13:45;;;;;;;18.90;9.45;;;;;;;16.45;97.10;100490.78;5011508;28;20049;-74
2021/07/01 01:16:10;;;;;;;18.80;9.95;;;;;;;16.36;96.65;100487.09;5008607;28;20056;-73
2021/07/01 01:18:36;;;;;;;17.65;10.13;;;;;;;16.25;97.10;100487.69;5032329;28;20044;-72
2021/07/01 01:21:02;;;;;;;22.13;11.18;;;;;;;16.33;98.25;100487.03;5027130;28;20021;-73
2021/07/01 01:23:28;;;;;;;21.10;11.18;;;;;;;16.30;99.66;100492.16;5011427;28;20383;-73
2021/07/01 01:25:57;;;;;;;27.20;12.68;;;;;;;16.41;99.13;100488.91;5011573;28;20024;-73
2021/07/01 01:28:23;;;;;;;17.95;11.45;;;;;;;16.44;97.84;100494.22;5012822;28;20033;-73
2021/07/01 01:30:48;;;;;;;19.50;12.20;;;;;;;16.49;96.52;100483.06;5028019;28;20033;-73
2021/07/01 01:33:20;;;;;;;18.10;11.23;;;;;;;16.50;97.25;100478.75;5013488;28;20052;-72
2021/07/01 01:35:45;;;;;;;24.33;12.38;;;;;;;16.52;96.63;100477.06;5012612;28;20034;-73
2021/07/01 01:38:13;;;;;;;19.95;11.73;;;;;;;16.55;96.46;100482.34;5012898;28;20485;-73
2021/07/01 01:40:40;;;;;;;19.95;12.07;;;;;;;16.56;96.11;100480.59;4994840;28;20478;-73
2021/07/01 01:43:06;;;;;;;23.80;12.35;;;;;;;16.62;96.24;100479.03;5011095;28;20431;-73
2021/07/01 01:45:32;;;;;;;26.20;13.45;;;;;;;16.59;95.48;100481.56;5027692;28;20023;-73
2021/07/01 01:47:58;;;;;;;27.50;13.75;;;;;;;16.51;97.54;100485.72;5011729;28;20442;-73
2021/07/01 01:50:24;;;;;;;27.63;12.50;;;;;;;16.39;98.23;100482.81;5011099;28;20025;-72
2021/07/01 01:52:50;;;;;;;23.92;12.77;;;;;;;16.34;99.53;100478.38;5010352;28;20554;-73
2021/07/01 01:55:16;;;;;;;27.15;13.48;;;;;;;16.40;98.55;100476.75;5027614;28;20125;-73
2021/07/01 01:57:44;;;;;;;26.98;14.13;;;;;;;16.36;98.63;100476.69;5012640;28;20030;-73
2021/07/01 02:00:11;;;;;;;29.52;13.95;;;;;;;16.42;98.76;100475.06;5013621;28;20072;-73
2021/07/01 02:02:37;;;;;;;26.45;14.38;;;;;;;16.45;97.84;100469.97;5023484;28;20025;-73
2021/07/01 02:05:04;;;;;;;27.20;14.63;;;;;;;16.59;98.17;100473.75;5020179;28;20072;-73
2021/07/01 02:07:30;;;;;;;27.15;13.38;;;;;;;16.57;97.24;100470.25;5031282;28;20120;-73
2021/07/01 02:09:55;;;;;;;26.58;14.43;;;;;;;16.55;97.30;100471.94;5031316;28;20109;-73
2021/07/01 02:12:20;;;;;;;31.92;14.77;;;;;;;16.49;98.17;100464.00;5015433;28;20022;-72
2021/07/01 02:14:46;;;;;;;31.13;15.55;;;;;;;16.38;98.59;100462.84;5031506;28;20449;-72
2021/07/01 02:17:11;;;;;;;29.58;14.35;;;;;;;16.46;98.61;100457.00;5030300;28;20077;-72
2021/07/01 02:19:37;;;;;;;30.95;15.05;;;;;;;16.50;98.28;100463.16;5014845;28;20034;-73
2021/07/01 02:22:03;;;;;;;28.90;15.55;;;;;;;16.60;97.66;100472.91;4998308;28;20028;-72
2021/07/01 02:24:29;;;;;;;30.90;14.77;;;;;;;16.78;97.32;100474.16;5014761;28;20033;-72
2021/07/01 02:26:54;;;;;;;30.02;14.38;;;;;;;16.76;96.09;100470.63;5014479;28;20032;-74
2021/07/01 02:29:19;;;;;;;31.05;14.35;;;;;;;16.73;95.53;100473.19;5031109;28;20041;-72
2021/07/01 02:31:45;;;;;;;24.02;14.07;;;;;;;16.67;95.28;100470.44;5015334;28;20091;-73
2021/07/01 02:34:10;;;;;;;31.92;14.98;;;;;;;16.71;95.65;100472.25;5030647;28;20026;-73
2021/07/01 02:36:36;;;;;;;28.10;16.00;;;;;;;16.62;97.78;100479.03;5025942;28;20048;-72
2021/07/01 02:39:01;;;;;;;26.83;14.50;;;;;;;16.62;97.76;100479.03;5029513;28;20026;-72
2021/07/01 02:41:26;;;;;;;28.65;13.48;;;;;;;16.64;95.96;100481.63;5025187;28;20041;-72
2021/07/01 02:43:52;;;;;;;24.13;13.48;;;;;;;16.60;96.01;100475.50;5022842;28;20076;-72
2021/07/01 02:46:17;;;;;;;23.88;13.45;;;;;;;16.60;97.37;100470.31;5023049;28;20033;-72
2021/07/01 02:48:43;;;;;;;20.27;12.77;;;;;;;16.72;96.61;100474.03;5033678;28;20033;-72
2021/07/01 02:51:08;;;;;;;21.17;12.02;;;;;;;16.76;95.93;100465.44;5031888;28;20029;-73
2021/07/01 02:53:33;;;;;;;26.95;12.48;;;;;;;16.75;95.76;100468.88;5014244;28;20041;-73
2021/07/01 02:55:59;;;;;;;21.55;12.63;;;;;;;16.69;95.36;100468.75;5021480;28;20063;-72
2021/07/01 02:58:24;;;;;;;27.92;13.32;;;;;;;16.61;96.73;100466.88;5021875;28;20025;-73
2021/07/01 03:00:50;;;;;;;27.25;13.13;;;;;;;16.56;98.12;100463.28;5013918;28;20121;-73
2021/07/01 03:03:15;;;;;;;22.08;12.52;;;;;;;16.45;99.58;100464.78;5014100;28;20160;-73
2021/07/01 03:05:40;;;;;;;27.13;13.00;;;;;;;16.57;98.78;100470.25;5013612;28;20088;-73
2021/07/01 03:08:06;;;;;;;21.05;12.77;;;;;;;16.66;97.02;100466.94;5015172;28;20107;-73
2021/07/01 03:10:32;;;;;;;23.33;12.80;;;;;;;16.73;97.86;100454.97;5013988;28;20571;-73
2021/07/01 03:12:57;;;;;;;26.88;12.35;;;;;;;16.64;97.27;100466.94;5014269;28;20073;-73
2021/07/01 03:15:23;;;;;;;20.60;13.10;;;;;;;16.72;96.76;100468.81;5014728;28;20026;-73
2021/07/01 03:17:48;;;;;;;22.13;12.23;;;;;;;16.69;96.09;100463.56;5013632;28;20041;-73
2021/07/01 03:20:13;;;;;;;25.13;12.98;;;;;;;16.78;97.08;100463.75;5014963;28;20057;-73
2021/07/01 03:22:39;;;;;;;21.90;12.10;;;;;;;16.80;95.57;100456.84;5013302;28;20040;-73
2021/07/01 03:25:05;;;;;;;19.13;11.77;;;;;;;16.82;94.75;100460.34;5014850;28;20108;-73
2021/07/01 03:27:30;;;;;;;20.27;11.50;;;;;;;16.82;95.52;100459.47;5030132;28;20065;-73
2021/07/01 03:29:56;;;;;;;22.60;12.18;;;;;;;16.80;96.53;100446.44;5029880;28;20034;-73
2021/07/01 03:32:21;;;;;;;24.00;12.13;;;;;;;16.72;96.45;100445.41;5014353;28;20042;-72
2021/07/01 03:34:46;;;;;;;21.13;11.63;;;;;;;16.76;97.18;100449.84;5013302;28;20021;-72
2021/07/01 03:37:12;;;;;;;24.83;12.13;;;;;;;16.72;96.16;100454.06;5013215;28;20391;-72
2021/07/01 03:39:37;;;;;;;21.60;11.98;;;;;;;16.74;96.52;100461.94;5013378;28;20030;-73
2021/07/01 03:42:03;;;;;;;23.98;11.32;;;;;;;16.78;95.86;100453.34;5012840;28;20102;-73
2021/07/01 03:44:29;;;;;;;23.23;12.60;;;;;;;16.74;96.50;100452.38;5012744;28;20460;-72
2021/07/01 03:46:54;;;;;;;21.52;12.10;;;;;;;16.68;97.49;100461.78;5014412;28;20033;-72
2021/07/01 03:49:20;;;;;;;22.35;12.60;;;;;;;16.59;98.19;100462.47;5029722;28;20484;-73
2021/07/01 03:51:46;;;;;;;24.23;13.63;;;;;;;16.59;98.72;100462.47;5012846;28;20124;-73
2021/07/01 03:54:11;;;;;;;23.02;13.13;;;;;;;16.63;97.32;100465.19;5013308;28;20052;-73
2021/07/01 03:56:42;;;;;;;25.70;13.43;;;;;;;16.58;96.83;100471.09;5014075;28;20021;-73
2021/07/01 03:59:12;;;;;;;23.17;13.48;;;;;;;16.70;97.05;100465.31;5012900;28;20057;-73
2021/07/01 04:01:39;;;;;;;24.58;13.70;;;;;;;16.75;96.41;100453.28;5012662;28;20025;-73
2021/07/01 04:04:05;;;;;;;19.45;12.77;;;;;;;16.68;95.68;100461.78;5029503;28;20435;-72
2021/07/01 04:06:32;;;;;;;26.27;13.90;;;;;;;16.74;97.36;100457.59;5012805;28;20036;-72
2021/07/01 04:08:58;;;;;;;22.23;13.55;;;;;;;16.76;96.31;100462.84;5029194;28;20026;-72
2021/07/01 04:11:25;;;;;;;23.17;14.65;;;;;;;16.78;96.01;100463.75;5012197;28;20030;-73
2021/07/01 04:13:50;;;;;;;23.48;12.73;;;;;;;16.76;96.53;100471.50;5012506;28;20109;-73
2021/07/01 04:16:16;;;;;;;21.35;13.57;;;;;;;16.83;96.20;100472.53;5011984;28;20120;-73
2021/07/01 04:18:41;;;;;;;22.15;12.98;;;;;;;16.80;95.39;100462.06;5013815;28;20057;-73
2021/07/01 04:21:07;;;;;;;20.83;12.35;;;;;;;16.74;94.93;100467.13;5012675;28;20392;-73
2021/07/01 04:23:32;;;;;;;21.75;12.68;;;;;;;16.64;95.28;100472.13;5012158;28;20041;-73
2021/07/01 04:25:58;;;;;;;19.63;12.18;;;;;;;16.61;93.95;100471.19;5013382;28;20057;-72
2021/07/01 04:28:24;;;;;;;21.88;11.27;;;;;;;16.70;96.73;100475.72;5012357;28;20380;-73
2021/07/01 04:30:49;;;;;;;23.73;11.45;;;;;;;16.72;99.45;100479.22;5011856;28;20061;-73
2021/07/01 04:33:15;;;;;;;20.73;12.18;;;;;;;16.75;98.65;100466.28;5012422;28;20045;-72
2021/07/01 04:35:47;;;;;;;15.95;11.05;;;;;;;16.83;99.07;100471.63;5012247;28;20506;-73
2021/07/01 04:38:13;;;;;;;16.90;10.32;;;;;;;16.89;98.88;100477.84;5013591;28;20022;-73
2021/07/01 04:40:39;;;;;;;16.35;9.43;;;;;;;16.77;98.11;100477.59;5012001;28;20383;-72
2021/07/01 04:43:04;;;;;;;13.27;8.73;;;;;;;16.55;99.56;100477.13;5013223;28;20033;-72
2021/07/01 04:45:30;;;;;;;13.80;8.63;;;;;;;16.64;100.00;100481.63;5013240;28;20113;-73
2021/07/01 04:47:56;;;;;;;12.52;7.97;;;;;;;16.76;99.82;100487.09;5013453;28;20057;-73
2021/07/01 04:50:22;;;;;;;11.38;7.95;;;;;;;16.84;97.29;100479.47;5013200;28;20037;-72
2021/07/01 04:52:47;;;;;;;11.85;7.90;;;;;;;16.89;97.07;100483.06;5012242;28;20019;-72
2021/07/01 04:55:13;;;;;;;11.93;8.25;;;;;;;16.89;97.44;100492.56;5013048;28;20080;-73
2021/07/01 04:57:38;;;;;;;11.43;7.93;;;;;;;16.91;96.67;100481.34;5011961;28;20025;-73
2021/07/01 05:00:05;;;;;;;10.85;6.35;;;;;;;16.84;96.58;100489.88;5012168;28;20121;-73
2021/07/01 05:02:30;;;;;;;11.43;8.00;;;;;;;16.93;97.79;100487.47;5012775;28;20112;-73
2021/07/01 05:04:56;;;;;;;9.77;6.75;;;;;;;16.98;96.61;100491.91;5013279;28;20060;-73
2021/07/01 05:07:21;;;;;;;10.60;6.43;;;;;;;16.95;97.06;100487.47;5013331;28;20033;-73
2021/07/01 05:09:47;;;;;;;11.13;6.72;;;;;;;16.90;96.56;100490.00;5012835;28;20029;-73
2021/07/01 05:12:12;;;;;;;8.52;5.80;;;;;;;16.96;95.72;100488.38;5012627;28;20038;-73
2021/07/01 05:14:37;;;;;;;6.95;4.78;;;;;;;16.85;97.50;100490.75;5012894;28;20041;-73
2021/07/01 05:17:03;;;;;;;9.45;5.35;;;;;;;16.79;96.41;100491.50;5012741;28;20088;-72
2021/07/01 05:19:28;;;;;;;7.65;5.45;;;;;;;16.81;98.74;100495.00;5027838;28;20022;-72
2021/07/01 05:21:54;;;;;;;9.05;5.78;;;;;;;16.89;98.21;100488.25;5012860;28;20026;-73
2021/07/01 05:24:19;;;;;;;8.63;4.85;;;;;;;16.93;98.12;100490.06;5013019;28;20033;-72
2021/07/01 05:26:44;;;;;;;7.40;4.65;;;;;;;16.91;97.01;100481.34;5012663;28;20151;-72
2021/07/01 05:29:10;;;;;;;5.82;4.43;;;;;;;17.01;96.81;100486.78;5027813;28;20030;-72
2021/07/01 05:31:35;;;;;;;7.30;4.80;;;;;;;17.03;96.96;100487.69;5011001;28;20033;-72
2021/07/01 05:34:01;;;;;;;6.72;4.60;;;;;;;17.09;96.04;100485.22;5028086;28;20430;-73
2021/07/01 05:36:27;;;;;;;7.03;3.80;;;;;;;17.14;95.06;100488.78;5011473;28;20038;-73
2021/07/01 05:38:52;;;;;;;7.05;4.78;;;;;;;17.14;95.70;100486.19;5031439;28;20037;-73
2021/07/01 05:41:17;;;;;;;6.65;4.75;;;;;;;17.13;95.89;100489.63;5016730;28;20068;-73
2021/07/01 05:43:43;;;;;;;5.30;4.10;;;;;;;17.09;96.11;100490.41;5015121;28;20029;-73
2021/07/01 05:46:08;;;;;;;6.55;4.53;;;;;;;17.06;96.06;100491.25;5016795;28;20018;-73
2021/07/01 05:48:34;;;;;;;6.13;4.25;;;;;;;17.00;96.03;100492.81;5016429;28;20076;-73
2021/07/01 05:51:02;;;;;;;5.90;4.45;;;;;;;16.91;97.57;100502.16;5015343;28;20037;-73
2021/07/01 05:53:32;;;;;;;6.72;4.18;;;;;;;17.03;97.08;100496.38;5014429;28;20068;-73
2021/07/01 05:55:58;;;;;;;6.13;4.07;;;;;;;17.08;96.32;100494.75;5015303;28;20025;-73
2021/07/01 05:58:24;;;;;;;5.55;3.90;;;;;;;17.12;96.05;100498.28;5015401;28;20032;-73
2021/07/01 06:00:49;;;;;;;6.18;4.35;;;;;;;17.13;95.73;100499.16;5016620;28;20352;-73
2021/07/01 06:03:15;;;;;;;7.18;4.97;;;;;;;17.14;95.20;100501.78;5015934;28;20491;-73
2021/07/01 06:05:44;;;;;;;6.88;4.68;;;;;;;17.13;95.31;100497.44;5015147;28;20471;-73
2021/07/01 06:08:12;;;;;;;6.15;4.00;;;;;;;17.10;94.81;100502.56;5031629;28;20026;-73
2021/07/01 06:10:39;;;;;;;5.20;3.88;;;;;;;17.12;94.87;100500.88;5015096;28;20030;-73
2021/07/01 06:13:06;;;;;;;8.95;4.13;;;;;;;17.19;95.35;100497.56;5014346;28;20026;-73
2021/07/01 06:15:35;;;;;;;5.35;3.50;;;;;;;17.31;94.03;100501.25;5015878;28;20464;-73
2021/07/01 06:18:02;;;;;;;4.25;3.30;;;;;;;17.31;94.35;100503.84;5031186;28;20046;-73
2021/07/01 06:20:28;;;;;;;5.72;3.70;;;;;;;17.36;93.38;100504.81;5031291;28;20026;-73
2021/07/01 06:22:54;;;;;;;5.60;3.67;;;;;;;17.28;92.88;100506.38;5030986;28;20037;-73
2021/07/01 06:25:20;;;;;;;5.35;3.30;;;;;;;17.30;93.40;100509.91;5014975;28;20025;-73
2021/07/01 06:27:46;;;;;;;5.50;3.70;;;;;;;17.38;93.33;100505.72;5014697;28;20378;-73
2021/07/01 06:30:17;;;;;;;5.03;3.50;;;;;;;17.47;93.23;100503.28;5015980;28;20113;-73
2021/07/01 06:32:45;;;;;;;3.97;3.17;;;;;;;17.55;93.04;100510.38;5014217;28;20502;-72
2021/07/01 06:35:13;;;;;;;4.55;2.97;;;;;;;17.46;93.65;100506.72;5014279;28;20038;-75
2021/07/01 06:37:39;;;;;;;4.47;3.38;;;;;;;17.43;94.05;100500.59;5015344;28;20108;-74
2021/07/01 06:40:07;;;;;;;4.75;2.92;;;;;;;17.48;94.08;100505.03;5014660;28;20080;-75
2021/07/01 06:42:42;;;;;;;7.80;2.72;;;;;;;17.54;93.26;100508.63;5014374;28;20542;-76
2021/07/01 06:45:09;;;;;;;4.15;3.22;;;;;;;17.60;93.51;100508.75;5014490;28;20033;-76
2021/07/01 06:47:34;;;;;;;4.93;3.50;;;;;;;17.64;92.03;100505.34;5014093;28;20080;-75
2021/07/01 06:50:05;;;;;;;5.68;3.70;;;;;;;17.62;93.28;100507.03;5015324;28;20021;-75
2021/07/01 06:52:31;;;;;;;6.15;3.95;;;;;;;17.65;94.14;100501.88;5014237;28;20032;-76
2021/07/01 06:54:57;;;;;;;5.97;4.32;;;;;;;17.60;95.09;100509.59;5030607;28;20030;-76
2021/07/01 06:57:23;;;;;;;7.72;5.40;;;;;;;17.62;94.66;100512.25;5015292;28;20030;-76
2021/07/01 06:59:49;;;;;;;7.93;5.00;;;;;;;17.67;94.09;100510.59;4997706;28;20096;-75
2021/07/01 07:02:15;;;;;;;6.82;4.93;;;;;;;17.78;93.29;100509.06;5015274;28;20029;-74
2021/07/01 07:04:41;;;;;;;6.97;5.75;;;;;;;17.88;93.83;100519.66;5013559;28;20022;-74
2021/07/01 07:07:07;;;;;;;7.57;5.68;;;;;;;17.96;92.82;100528.47;5015203;28;20018;-75
2021/07/01 07:09:33;;;;;;;8.85;5.88;;;;;;;18.04;92.97;100516.47;5030424;28;20088;-75
2021/07/01 07:11:59;;;;;;;9.60;6.22;;;;;;;18.07;92.18;100526.94;5015008;28;20221;-75
2021/07/01 07:14:24;;;;;;;10.00;6.50;;;;;;;18.21;91.97;100523.69;5014845;28;20257;-75
2021/07/01 07:16:52;;;;;;;8.13;6.03;;;;;;;18.34;90.46;100524.78;5013399;28;20510;-75
2021/07/01 07:19:20;;;;;;;9.32;6.20;;;;;;;18.36;89.98;100523.91;5013796;28;20029;-75
2021/07/01 07:21:51;;;;;;;8.10;5.95;;;;;;;18.38;90.04;100522.22;5012840;28;20045;-75
2021/07/01 07:24:17;;;;;;;11.00;6.28;;;;;;;18.40;89.76;100519.66;5014545;28;20033;-74
2021/07/01 07:26:49;;;;;;;8.93;6.38;;;;;;;18.44;89.36;100520.56;5015152;28;20025;-75
2021/07/01 07:29:15;;;;;;;7.28;6.22;;;;;;;18.54;89.58;100522.44;5013598;28;20061;-75
2021/07/01 07:31:41;;;;;;;8.45;6.03;;;;;;;18.65;88.31;100526.09;5013636;28;20022;-75
2021/07/01 07:34:08;;;;;;;7.57;6.20;;;;;;;18.75;86.58;100521.88;5013433;28;20472;-75
2021/07/01 07:36:34;;;;;;;7.53;6.57;;;;;;;18.82;87.54;100517.63;5013287;28;20053;-74
2021/07/01 07:39:02;;;;;;;8.48;6.25;;;;;;;18.90;86.34;100526.44;5014146;28;20080;-75
2021/07/01 07:41:27;;;;;;;8.43;6.40;;;;;;;18.97;87.11;100525.69;5029731;28;20025;-75
2021/07/01 07:43:55;;;;;;;7.93;6.38;;;;;;;19.11;85.88;100520.66;5029953;28;20030;-74
2021/07/01 07:46:23;;;;;;;11.70;6.45;;;;;;;19.22;84.70;100518.16;5013162;28;20494;-74
2021/07/01 07:48:49;;;;;;;9.35;5.53;;;;;;;19.24;84.31;100521.66;5014007;28;20038;-74
2021/07/01 07:51:17;;;;;;;10.30;7.10;;;;;;;19.23;84.67;100522.50;5012690;28;20038;-74
2021/07/01 07:53:55;;;;;;;9.15;5.97;;;;;;;19.08;85.63;100524.94;5013169;28;20053;-75
2021/07/01 07:56:27;;;;;;;10.15;6.65;;;;;;;19.04;85.28;100523.16;5013872;28;20030;-75
2021/07/01 07:58:55;;;;;;;8.35;6.40;;;;;;;18.88;87.06;100522.03;5014118;28;20030;-76
2021/07/01 08:01:22;;;;;;;9.65;7.45;;;;;;;18.61;88.33;100524.31;5011438;28;20365;-75
2021/07/01 08:03:52;;;;;;;12.48;7.00;;;;;;;18.38;87.07;100522.22;5012653;28;20037;-76
2021/07/01 08:06:21;;;;;;;8.25;6.07;;;;;;;18.51;88.31;100522.41;5029232;28;20100;-75
2021/07/01 08:08:47;;;;;;;8.75;6.55;;;;;;;18.53;89.22;100525.91;5029079;28;20075;-74
2021/07/01 08:11:13;;;;;;;12.48;6.78;;;;;;;18.49;88.83;100529.31;5015285;28;20025;-75
2021/07/01 08:13:40;;;;;;;11.75;6.65;;;;;;;18.45;88.68;100527.53;5003786;28;20104;-73
2021/07/01 08:16:06;;;;;;;10.63;6.45;;;;;;;18.35;89.37;100522.16;5024098;28;20033;-74
2021/07/01 08:18:40;;;;;;;8.98;6.35;;;;;;;18.34;90.13;100530.84;5021793;28;20021;-73
2021/07/01 08:21:13;;;;;;;8.50;6.00;;;;;;;18.25;89.70;100533.31;5018537;28;20026;-73
2021/07/01 08:23:40;;;;;;;10.70;6.60;;;;;;;18.33;89.33;100534.31;5020492;28;20068;-74
2021/07/01 08:26:07;;;;;;;8.95;6.50;;;;;;;18.45;88.97;100535.34;5019279;28;20025;-73
2021/07/01 08:28:33;;;;;;;8.82;6.47;;;;;;;18.44;88.35;100536.19;5020420;28;20021;-73
2021/07/01 08:31:05;;;;;;;8.23;6.13;;;;;;;18.49;88.02;100539.75;5021221;28;20470;-74
2021/07/01 08:33:36;;;;;;;9.07;6.70;;;;;;;18.54;88.77;100538.97;5018001;28;20026;-74
2021/07/01 08:36:03;;;;;;;7.78;6.18;;;;;;;18.65;88.04;100541.75;5020373;28;20104;-73
2021/07/01 08:38:35;;;;;;;9.70;6.60;;;;;;;18.66;87.55;100537.41;5013348;28;20033;-74
2021/07/01 08:41:14;;;;;;;10.18;6.93;;;;;;;18.64;88.34;100545.22;5010232;28;20158;-75
2021/07/01 08:43:53;;;;;;;11.05;6.18;;;;;;;18.68;87.80;100536.59;5028005;28;20095;-74
2021/07/01 08:46:23;;;;;;;8.48;6.45;;;;;;;18.80;87.65;100535.00;5003820;28;20026;-73
2021/07/01 08:49:01;;;;;;;9.27;6.20;;;;;;;18.92;87.22;100548.22;5012596;28;20041;-73
2021/07/01 08:51:29;;;;;;;7.60;5.30;;;;;;;18.74;86.49;100545.34;5012625;28;20336;-73
2021/07/01 08:54:13;;;;;;;8.50;5.25;;;;;;;19.08;85.31;100551.03;5013331;28;20026;-74
2021/07/01 08:56:39;;;;;;;9.50;5.80;;;;;;;19.32;84.88;100545.25;5010749;28;20044;-74
2021/07/01 08:59:06;;;;;;;8.35;5.22;;;;;;;19.31;84.37;100547.84;5012019;28;20391;-74
2021/07/01 09:01:32;;;;;;;8.63;5.55;;;;;;;19.43;83.92;100542.75;5014505;28;20036;-74
2021/07/01 09:03:58;;;;;;;8.38;4.93;;;;;;;19.58;82.62;100546.38;5022045;28;20029;-73
2021/07/01 09:06:25;;;;;;;8.75;5.18;;;;;;;19.49;82.60;100545.44;5022011;28;20026;-74
2021/07/01 09:08:52;;;;;;;10.57;4.88;;;;;;;19.29;81.90;100544.34;5016619;28;20083;-74
2021/07/01 09:11:20;;;;;;;7.53;4.82;;;;;;;19.26;84.06;100550.41;5020623;28;20036;-74
2021/07/01 09:13:48;;;;;;;8.02;4.55;;;;;;;19.31;83.62;100547.84;5020963;28;20033;-74
2021/07/01 09:16:17;;;;;;;7.68;5.18;;;;;;;19.29;84.12;100550.44;5034877;28;20522;-73
2021/07/01 09:18:47;;;;;;;7.20;4.85;;;;;;;19.20;83.84;100561.63;5002183;28;20018;-73
2021/07/01 09:21:13;;;;;;;4.88;3.92;;;;;;;19.27;83.45;100553.03;5017431;28;20045;-74
2021/07/01 09:23:45;;;;;;;6.28;4.72;;;;;;;19.33;82.69;100553.94;5020939;28;20378;-73
2021/07/01 09:26:19;;;;;;;11.57;4.63;;;;;;;19.38;82.49;100557.50;5020784;28;20009;-74
2021/07/01 09:28:47;;;;;;;6.43;4.55;;;;;;;19.47;82.53;100552.38;5017991;28;20033;-73
2021/07/01 09:31:16;;;;;;;8.57;4.55;;;;;;;19.33;81.18;100561.78;5016490;28;20111;-72
2021/07/01 09:33:42;;;;;;;6.20;4.55;;;;;;;19.39;82.12;100561.84;5020657;28;20064;-72
2021/07/01 09:36:09;;;;;;;7.35;4.90;;;;;;;19.40;81.02;100559.28;5020560;28;20036;-74
2021/07/01 09:38:35;;;;;;;8.68;4.70;;;;;;;19.46;81.58;100562.81;5018711;28;20058;-75
2021/07/01 09:41:01;;;;;;;7.43;4.68;;;;;;;19.64;81.81;100567.38;5019128;28;20034;-74
2021/07/01 09:43:27;;;;;;;6.32;4.20;;;;;;;19.69;80.12;100563.09;5018792;28;20040;-73
2021/07/01 09:45:54;;;;;;;8.13;4.63;;;;;;;19.59;80.43;100569.03;5016232;28;20029;-73
2021/07/01 09:48:22;;;;;;;4.95;3.80;;;;;;;19.43;81.01;100563.66;5020750;28;20025;-73
2021/07/01 09:50:49;;;;;;;6.68;4.50;;;;;;;19.58;82.48;100564.66;5038316;28;20475;-74
2021/07/01 09:53:35;;;;;;;7.45;4.68;;;;;;;19.39;81.40;100567.09;5020413;28;20065;-74
2021/07/01 09:56:04;;;;;;;7.00;4.03;;;;;;;19.45;80.83;100567.16;5018806;28;20040;-73
2021/07/01 09:58:30;;;;;;;;;;;;;;;19.55;81.25;100569.00;5019808;28;20041;-73
2021/07/01 10:00:56;;;;;;;7.25;4.78;;;;;;;19.56;81.58;100570.75;5019155;28;19918;-73
2021/07/01 10:03:21;;;;;;;10.35;5.43;;;;;;;19.66;82.23;100574.34;5012046;28;20026;-73
2021/07/01 10:05:47;;;;;;;6.95;5.28;;;;;;;19.78;82.07;100571.00;5010147;28;20034;-73
2021/07/01 10:08:13;;;;;;;9.93;5.65;;;;;;;19.76;82.19;100570.13;5021966;28;20064;-73
2021/07/01 10:10:43;;;;;;;6.25;5.10;;;;;;;19.87;79.72;100569.34;5008962;28;20030;-74
2021/07/01 10:13:11;;;;;;;7.97;5.25;;;;;;;19.44;82.07;100581.06;5009791;28;20033;-73
2021/07/01 10:15:37;;;;;;;6.22;4.55;;;;;;;19.55;81.08;100574.22;5008908;28;20037;-73
2021/07/01 10:18:06;;;;;;;6.22;4.40;;;;;;;19.73;80.40;100583.16;5010194;28;20041;-71
2021/07/01 10:20:37;;;;;;;9.10;4.05;;;;;;;19.80;80.05;100584.97;5023748;28;20036;-73
2021/07/01 10:23:04;;;;;;;4.82;3.80;;;;;;;19.74;79.79;100584.91;5026389;28;20028;-74
2021/07/01 10:25:32;;;;;;;6.63;4.10;;;;;;;19.99;79.38;100579.94;5012902;28;20026;-74
2021/07/01 10:28:11;;;;;;;5.53;3.50;;;;;;;20.23;77.94;100583.63;5013669;28;20025;-73
2021/07/01 10:30:37;;;;;;;7.93;4.00;;;;;;;20.37;77.87;100582.00;5011978;28;20044;-74
2021/07/01 10:33:04;;;;;;;6.50;4.45;;;;;;;20.54;77.01;100578.63;5015940;28;20606;-74
2021/07/01 10:35:35;;;;;;;8.38;4.03;;;;;;;20.70;76.52;100572.66;5022988;28;20068;-74
2021/07/01 10:38:12;;;;;;;5.95;4.03;;;;;;;20.89;75.64;100579.78;5022492;28;20027;-74
2021/07/01 10:40:43;;;;;;;5.57;4.22;;;;;;;20.77;76.60;100575.31;5038098;28;20072;-74
2021/07/01 10:43:09;;;;;;;8.20;3.78;;;;;;;20.86;74.97;100575.41;5006640;28;20033;-74
2021/07/01 10:45:36;;;;;;;6.82;3.97;;;;;;;20.95;76.04;100575.47;5023166;28;20026;-74
2021/07/01 10:48:16;;;;;;;7.03;4.35;;;;;;;21.23;75.32;100586.06;5022886;28;20025;-74
2021/07/01 10:50:46;;;;;;;4.82;3.70;;;;;;;21.49;73.83;100577.41;5022570;28;20040;-74
2021/07/01 10:53:37;;;;;;;4.70;3.70;;;;;;;21.80;71.82;100569.69;5022740;28;20030;-73
2021/07/01 10:56:14;;;;;;;5.22;3.42;;;;;;;22.04;70.88;100575.81;5023845;28;20080;-74
2021/07/01 10:58:41;;;;;;;5.25;3.58;;;;;;;21.93;71.89;100574.94;5024717;28;20021;-74
2021/07/01 11:01:07;;;;;;;5.35;3.72;;;;;;;22.58;69.71;100580.19;5022255;28;20418;-74
2021/07/01 11:03:34;;;;;;;4.25;2.95;;;;;;;23.64;67.46;100578.97;5003587;28;20024;-74
2021/07/01 11:06:20;;;;;;;4.55;3.10;;;;;;;23.84;65.09;100575.34;5017773;28;20104;-73
2021/07/01 11:08:53;;;;;;;5.88;3.05;;;;;;;23.16;64.41;100580.94;5015724;28;20423;-73
2021/07/01 11:11:20;;;;;;;9.82;2.80;;;;;;;24.19;63.91;100574.25;5012501;28;20044;-73
2021/07/01 11:13:54;;;;;;;3.85;2.50;;;;;;;24.60;62.71;100574.75;5013526;28;20038;-81
2021/07/01 11:16:19;;;;;;;4.78;3.00;;;;;;;24.37;63.51;100572.34;5012295;28;20464;-85
2021/07/01 11:18:49;;;;;;;5.57;3.45;;;;;;;23.67;63.66;100569.31;5020816;28;20040;-83